GCXOGMML

Guest
Details From GCXO - Tenerife Norte - Los Rodeos
To GMML - HASSAN I
Flight Number -
Tags generated
Created
Modified
Stats Distance 185 nm / 342 km
Max Altitude 23,000 ft / 7,010 m
Waypoints 4
Social Downloads 2
Likes 0
Share VATSIM

Download

Looking for another format? Having issues loading an existing format? Contact us
Advertisement - Login to hide

Notes

Basic altitude profile: - Ascent Rate: 2500ft/min - Ascent Speed: 250kts - Cruise Altitude: 35000ft - Cruise Speed: 420kts - Descent Rate: 1500ft/min - Descent Speed: 250kts Options: - Use NATs: yes - Use PACOTS: yes - Use low airways: yes - Use high airways: yes

Route

GCXO GDV 2800N01500W GMML

ID Type Via Altitude Latitude Longitude Leg Dist Tot Dist Heading (true) Name
O GCXO APT - 0 ft / 0 m 28.48266˚ -16.34154˚ - 0 nm - Tenerife Norte - Los Rodeos
GDV VOR - 19,300 ft / 5,883 m 28.07708˚ -15.42899˚ 54 nm 54 nm 117° / 117° GRAN CANARIA VOR-DME
2800N01500W LATLON - 23,000 ft / 7,010 m 28.00000˚ -15.00000˚ 23 nm 77 nm 101° / 102° -
O GMML APT - 0 ft / 0 m 27.14365˚ -13.22540˚ 107 nm 184 nm 118° / 119° HASSAN I

Altitude Profile

Advertisement - Login to hide

Weather


0- 5 10 15 20 25 30 35+ Temperature / ° C

Clouds and Precipitation
Forecast for 2018-05-24 18:00 UTC. Updated 4 hours ago

Ground ~20,000 ft ~40,000 ft Winds

GCXO

Details ICAO GCXO (TFN)
Name Tenerife Norte - Los Rodeos
Region Canary Islands
Timezone Atlantic/Canary (UTC+1.0)
Stats Elevation 2,076 ft / 633 m (AMSL)
Location 28.482656° -16.341541°
Runways 1
Magnetic Variation 4.951° W

METAR

GCXO 242100Z 31015KT 280V340 9999 FEW003 BKN007 14/13 Q1020 NOSIG

Decode

TAF

TAF GCXO 242000Z 2421/2521 30014KT 9999 BKN020 TX19/2514Z TN12/2505Z PROB40 TEMPO 2421/2509 3000 DZ BCFG BKN010

Decode

Departure Runways

ID Width Length Bearing (true) Bearing (mag) Surface Threshold Offset Overrun Length
12 148 ft / 45 m 11,165 ft / 3,403 m 110.67° 115.62° Asphalt 0 ft / 0 m 197 ft / 60 m
30 148 ft / 45 m 11,165 ft / 3,403 m 290.69° 295.64° Asphalt 0 ft / 0 m 197 ft / 60 m

GMML

Details ICAO GMML (EUN)
Name HASSAN I
Region Morocco
Timezone Africa/El_Aaiun (UTC+0.0)
Stats Elevation 207 ft / 63 m (AMSL)
Location 27.143650° -13.225399°
Runways 2
Magnetic Variation 3.908° W

METAR

GMML 242100Z 34007KT CAVOK 18/14 Q1018 NOSIG

Decode

TAF

TAF GMML 241700Z 2418/2524 36015KT CAVOK BECMG 2420/2423 SCT013 BECMG 2510/2512 FEW013

Decode

Destination Runways

ID Width Length Bearing (true) Bearing (mag) Surface Threshold Offset Overrun Length
02 148 ft / 45 m 8,890 ft / 2,710 m 16.42° 20.33° Asphalt 0 ft / 0 m 200 ft / 61 m
04 148 ft / 45 m 8,221 ft / 2,506 m 31.58° 35.49° Asphalt 0 ft / 0 m 0 ft / 0 m
20 148 ft / 45 m 8,890 ft / 2,710 m 196.43° 200.34° Asphalt 0 ft / 0 m 200 ft / 61 m
22 148 ft / 45 m 8,221 ft / 2,506 m 211.59° 215.50° Asphalt 0 ft / 0 m 658 ft / 201 m

Popular Alternatives